ESMK/KID METAR and TAF weather

Enter ICAO airport designator
Station Type Date Time Source
ESMK METAR 2018/01/16 08:50 UTC NOAA

ESMK 160850Z 17008KT 6000 BR FEW006 OVC009 01/01 Q0985


Station Type Date Time Source
ESMK Decoded METAR 2018/01/16 08:50 UTC NOAA

Kristianstad / Everod, Sweden (ESMK) 55-55N 014-05E
Jan 16, 2018 - 03:50 AM EST / 2018.01.16 0850 UTC
Wind: from the S (170 degrees) at 9 MPH (8 KT):0
Visibility: 3 mile(s):0
Sky conditions: overcast
Weather: mist
Temperature: 33 F (1 C)
Windchill: 24 F (-4 C):1
Dew Point: 33 F (1 C)
Relative Humidity: 100%
Pressure (altimeter): 29.09 in. Hg (0985 hPa)
ob: ESMK 160850Z 17008KT 6000 BR FEW006 OVC009 01/01 Q0985
cycle: 9

Station Type Date Time Source
ESMK TAF 2015/03/18 12:33 UTC NOAA

TAF ESMK 181130Z 1812/1824 13012KT CAVOK


Example: see airport list